createdAt,value
2017-08-21T00:00:00.583Z,786.42
2017-08-21T00:00:04.927Z,786.42
2017-08-21T00:00:09.272Z,786.45
2017-08-21T00:00:13.626Z,786.43
2017-08-21T00:00:17.976Z,786.49
2017-08-21T00:00:22.434Z,786.48
2017-08-21T00:00:26.768Z,786.5
2017-08-21T00:00:31.217Z,786.51
2017-08-21T00:00:35.691Z,786.48
2017-08-21T00:00:40.072Z,786.51
2017-08-21T00:00:44.420Z,786.51
2017-08-21T00:00:48.887Z,786.49
2017-08-21T00:00:53.363Z,786.51
2017-08-21T00:00:57.706Z,786.56
2017-08-21T00:01:02.044Z,786.57
2017-08-21T00:01:06.501Z,786.52
2017-08-21T00:01:10.739Z,786.57
2017-08-21T00:01:15.086Z,786.56
2017-08-21T00:01:19.435Z,786.5
2017-08-21T00:01:23.653Z,786.58
2017-08-21T00:01:27.997Z,786.57
2017-08-21T00:01:32.449Z,786.53
2017-08-21T00:01:36.673Z,786.57
2017-08-21T00:01:41.127Z,786.6
2017-08-21T00:01:45.457Z,786.62
2017-08-21T00:01:49.901Z,786.6
2017-08-21T00:01:54.359Z,786.58
2017-08-21T00:01:58.816Z,786.59
2017-08-21T00:02:03.293Z,786.62
2017-08-21T00:02:07.655Z,786.6
2017-08-21T00:02:11.644Z,786.61
2017-08-21T00:02:15.988Z,786.61
2017-08-21T00:02:20.458Z,786.65
2017-08-21T00:02:24.782Z,786.64
2017-08-21T00:02:28.885Z,786.64
2017-08-21T00:02:33.120Z,786.61
2017-08-21T00:02:37.242Z,786.67
2017-08-21T00:02:41.334Z,786.63
2017-08-21T00:02:45.583Z,786.66
2017-08-21T00:02:49.936Z,786.62
2017-08-21T00:02:54.282Z,786.62
2017-08-21T00:02:58.745Z,786.63
2017-08-21T00:03:03.211Z,786.67
2017-08-21T00:03:07.818Z,786.67
2017-08-21T00:03:12.039Z,786.65
2017-08-21T00:03:16.493Z,786.65
2017-08-21T00:03:20.959Z,786.66
2017-08-21T00:03:25.449Z,786.68
2017-08-21T00:03:29.796Z,786.66
2017-08-21T00:03:34.260Z,786.65
2017-08-21T00:03:38.127Z,786.68
2017-08-21T00:03:42.463Z,786.63
2017-08-21T00:03:46.807Z,786.63
2017-08-21T00:03:51.260Z,786.66
2017-08-21T00:03:55.720Z,786.65
2017-08-21T00:03:59.937Z,786.61
2017-08-21T00:04:04.302Z,786.66
2017-08-21T00:04:08.644Z,786.6
2017-08-21T00:04:12.855Z,786.61
2017-08-21T00:04:17.323Z,786.67
2017-08-21T00:04:21.674Z,786.65
2017-08-21T00:04:26.028Z,786.62
2017-08-21T00:04:30.508Z,786.62
2017-08-21T00:04:34.507Z,786.64
2017-08-21T00:04:38.743Z,786.62
2017-08-21T00:04:43.211Z,786.64
2017-08-21T00:04:47.552Z,786.6
2017-08-21T00:04:52.035Z,786.61
2017-08-21T00:04:56.502Z,786.62
2017-08-21T00:05:00.968Z,786.62
2017-08-21T00:05:05.428Z,786.61
2017-08-21T00:05:09.639Z,786.61
2017-08-21T00:05:13.854Z,786.61
2017-08-21T00:05:17.957Z,786.63
2017-08-21T00:05:22.423Z,786.63
2017-08-21T00:05:26.769Z,786.61
2017-08-21T00:05:31.128Z,786.62
2017-08-21T00:05:35.475Z,786.62
2017-08-21T00:05:39.802Z,786.6
2017-08-21T00:05:44.257Z,786.58
2017-08-21T00:05:48.762Z,786.57
2017-08-21T00:05:53.205Z,786.61
2017-08-21T00:05:57.676Z,786.57
2017-08-21T00:06:02.146Z,786.57
2017-08-21T00:06:06.644Z,786.6
2017-08-21T00:06:11.011Z,786.55
2017-08-21T00:06:15.222Z,786.56
2017-08-21T00:06:19.569Z,786.58
2017-08-21T00:06:23.922Z,786.56
2017-08-21T00:06:28.265Z,786.56
2017-08-21T00:06:32.737Z,786.51
2017-08-21T00:06:36.610Z,786.56
2017-08-21T00:06:41.085Z,786.58
2017-08-21T00:06:45.437Z,786.52
2017-08-21T00:06:49.803Z,786.51
2017-08-21T00:06:54.263Z,786.53
2017-08-21T00:06:58.713Z,786.49
2017-08-21T00:07:03.278Z,786.54
2017-08-21T00:07:07.507Z,786.53
2017-08-21T00:07:11.870Z,786.51
2017-08-21T00:07:15.857Z,786.51
2017-08-21T00:07:20.079Z,786.5
2017-08-21T00:07:24.538Z,786.53
2017-08-21T00:07:28.870Z,786.49
2017-08-21T00:07:33.340Z,786.5
2017-08-21T00:07:37.213Z,786.5
2017-08-21T00:07:41.567Z,786.49
2017-08-21T00:07:45.680Z,786.48
2017-08-21T00:07:50.030Z,786.47
2017-08-21T00:07:54.486Z,786.47
2017-08-21T00:07:58.947Z,786.46
2017-08-21T00:08:03.407Z,786.45
2017-08-21T00:08:07.741Z,786.45
2017-08-21T00:08:12.206Z,786.45
2017-08-21T00:08:16.582Z,786.45
2017-08-21T00:08:20.806Z,786.45
2017-08-21T00:08:25.266Z,786.47
2017-08-21T00:08:29.737Z,786.46
2017-08-21T00:08:34.098Z,786.43
2017-08-21T00:08:38.324Z,786.45
2017-08-21T00:08:42.772Z,786.46
2017-08-21T00:08:47.119Z,786.43
2017-08-21T00:08:51.572Z,786.37
2017-08-21T00:08:56.028Z,786.37
2017-08-21T00:09:00.374Z,786.43
2017-08-21T00:09:05.045Z,786.42
2017-08-21T00:09:09.527Z,786.42
2017-08-21T00:09:13.983Z,786.44
2017-08-21T00:09:18.330Z,786.43
2017-08-21T00:09:22.683Z,786.42
2017-08-21T00:09:27.130Z,786.4
2017-08-21T00:09:31.347Z,786.42
2017-08-21T00:09:35.700Z,786.39
2017-08-21T00:09:40.068Z,786.39
2017-08-21T00:09:44.520Z,786.4
2017-08-21T00:09:48.856Z,786.36
2017-08-21T00:09:53.341Z,786.37
2017-08-21T00:09:57.802Z,786.39
2017-08-21T00:10:02.146Z,786.34
2017-08-21T00:10:06.501Z,786.37
2017-08-21T00:10:10.975Z,786.33
2017-08-21T00:10:15.422Z,786.37
2017-08-21T00:10:19.642Z,786.36
2017-08-21T00:10:23.989Z,786.33
2017-08-21T00:10:28.444Z,786.41
2017-08-21T00:10:32.787Z,786.39
2017-08-21T00:10:37.006Z,786.34
2017-08-21T00:10:41.353Z,786.37
2017-08-21T00:10:45.604Z,786.39
2017-08-21T00:10:49.952Z,786.39
2017-08-21T00:10:54.399Z,786.38
2017-08-21T00:10:58.622Z,786.4
2017-08-21T00:11:03.416Z,786.41
2017-08-21T00:11:07.860Z,786.41
2017-08-21T00:11:12.070Z,786.41
2017-08-21T00:11:16.410Z,786.4
2017-08-21T00:11:20.641Z,786.42
2017-08-21T00:11:24.888Z,786.39
2017-08-21T00:11:29.354Z,786.41
2017-08-21T00:11:33.595Z,786.4
2017-08-21T00:11:37.814Z,786.42
2017-08-21T00:11:42.150Z,786.4
2017-08-21T00:11:46.378Z,786.35
2017-08-21T00:11:50.754Z,786.38
2017-08-21T00:11:55.213Z,786.39
2017-08-21T00:11:59.679Z,786.41
2017-08-21T00:12:04.145Z,786.38
2017-08-21T00:12:08.611Z,786.4
2017-08-21T00:12:12.947Z,786.39
2017-08-21T00:12:17.287Z,786.39
2017-08-21T00:12:21.632Z,786.41
2017-08-21T00:12:26.105Z,786.39
2017-08-21T00:12:30.557Z,786.39
2017-08-21T00:12:35.019Z,786.39
2017-08-21T00:12:39.378Z,786.4
2017-08-21T00:12:43.722Z,786.38
2017-08-21T00:12:47.957Z,786.36
2017-08-21T00:12:52.300Z,786.37
2017-08-21T00:12:56.639Z,786.39
2017-08-21T00:13:01.112Z,786.38
2017-08-21T00:13:05.750Z,786.35
2017-08-21T00:13:10.223Z,786.38
2017-08-21T00:13:14.682Z,786.41
2017-08-21T00:13:19.154Z,786.35
2017-08-21T00:13:23.367Z,786.41
2017-08-21T00:13:27.595Z,786.39
2017-08-21T00:13:32.070Z,786.38
2017-08-21T00:13:36.299Z,786.32
2017-08-21T00:13:40.761Z,786.39
2017-08-21T00:13:44.990Z,786.4
2017-08-21T00:13:49.234Z,786.38
2017-08-21T00:13:53.696Z,786.35
2017-08-21T00:13:58.038Z,786.39
2017-08-21T00:14:02.507Z,786.4
2017-08-21T00:14:06.857Z,786.4
2017-08-21T00:14:11.235Z,786.38
2017-08-21T00:14:15.680Z,786.39
2017-08-21T00:14:20.142Z,786.38
2017-08-21T00:14:24.626Z,786.39
2017-08-21T00:14:28.857Z,786.4
2017-08-21T00:14:33.331Z,786.36
2017-08-21T00:14:37.802Z,786.38
2017-08-21T00:14:42.269Z,786.39
2017-08-21T00:14:46.729Z,786.39
2017-08-21T00:14:51.204Z,786.38
2017-08-21T00:14:55.659Z,786.39
2017-08-21T00:15:00.122Z,786.39
2017-08-21T00:15:04.538Z,786.38
2017-08-21T00:15:09.007Z,786.37
2017-08-21T00:15:13.377Z,786.39
2017-08-21T00:15:17.607Z,786.36
2017-08-21T00:15:22.067Z,786.38
2017-08-21T00:15:26.528Z,786.35
2017-08-21T00:15:30.904Z,786.39
2017-08-21T00:15:35.238Z,786.31
2017-08-21T00:15:39.458Z,786.36
2017-08-21T00:15:43.568Z,786.33
2017-08-21T00:15:47.785Z,786.33
2017-08-21T00:15:52.243Z,786.32
2017-08-21T00:15:56.702Z,786.36
2017-08-21T00:16:01.063Z,786.37
2017-08-21T00:16:05.579Z,786.35
2017-08-21T00:16:10.044Z,786.36
2017-08-21T00:16:14.500Z,786.35
2017-08-21T00:16:18.949Z,786.36
2017-08-21T00:16:23.413Z,786.36
2017-08-21T00:16:27.875Z,786.36
2017-08-21T00:16:32.221Z,786.37
2017-08-21T00:16:36.339Z,786.34
2017-08-21T00:16:40.574Z,786.37
2017-08-21T00:16:44.548Z,786.37
2017-08-21T00:16:48.898Z,786.36
2017-08-21T00:16:53.366Z,786.35
2017-08-21T00:16:57.829Z,786.37
2017-08-21T00:17:02.295Z,786.37
2017-08-21T00:17:06.636Z,786.37
2017-08-21T00:17:11.096Z,786.35
2017-08-21T00:17:15.574Z,786.37
2017-08-21T00:17:20.027Z,786.35
2017-08-21T00:17:24.500Z,786.36
2017-08-21T00:17:28.980Z,786.38
2017-08-21T00:17:33.439Z,786.35
2017-08-21T00:17:37.767Z,786.36
2017-08-21T00:17:41.880Z,786.38
2017-08-21T00:17:46.091Z,786.37
2017-08-21T00:17:50.305Z,786.37
2017-08-21T00:17:54.778Z,786.33
2017-08-21T00:17:59.261Z,786.38
2017-08-21T00:18:03.737Z,786.39
2017-08-21T00:18:08.071Z,786.41
2017-08-21T00:18:12.865Z,786.39
2017-08-21T00:18:17.254Z,786.39
2017-08-21T00:18:21.711Z,786.38
2017-08-21T00:18:26.198Z,786.38
2017-08-21T00:18:30.425Z,786.38
2017-08-21T00:18:34.886Z,786.39
2017-08-21T00:18:38.881Z,786.42
2017-08-21T00:18:43.329Z,786.37
2017-08-21T00:18:47.443Z,786.39
2017-08-21T00:18:51.913Z,786.38
2017-08-21T00:18:56.420Z,786.39
2017-08-21T00:19:00.877Z,786.39
2017-08-21T00:19:05.510Z,786.38
2017-08-21T00:19:09.966Z,786.4
2017-08-21T00:19:14.330Z,786.39
2017-08-21T00:19:18.666Z,786.41
2017-08-21T00:19:23.134Z,786.39
2017-08-21T00:19:27.486Z,786.4
2017-08-21T00:19:31.851Z,786.42
2017-08-21T00:19:36.083Z,786.4
2017-08-21T00:19:40.081Z,786.38
2017-08-21T00:19:44.320Z,786.41
2017-08-21T00:19:48.665Z,786.39
2017-08-21T00:19:53.135Z,786.35
2017-08-21T00:19:57.372Z,786.38
2017-08-21T00:20:02.142Z,786.4
2017-08-21T00:20:06.603Z,786.37
2017-08-21T00:20:11.065Z,786.42
2017-08-21T00:20:15.542Z,786.39
2017-08-21T00:20:20.041Z,786.4
2017-08-21T00:20:24.508Z,786.39
2017-08-21T00:20:28.957Z,786.43
2017-08-21T00:20:33.205Z,786.42
2017-08-21T00:20:37.091Z,786.45
2017-08-21T00:20:41.443Z,786.42
2017-08-21T00:20:45.656Z,786.38
2017-08-21T00:20:49.998Z,786.42
2017-08-21T00:20:54.446Z,786.42
2017-08-21T00:20:58.795Z,786.44
2017-08-21T00:21:03.143Z,786.43
2017-08-21T00:21:07.649Z,786.45
2017-08-21T00:21:11.987Z,786.43
2017-08-21T00:21:16.435Z,786.45
2017-08-21T00:21:20.902Z,786.44
2017-08-21T00:21:25.363Z,786.44
2017-08-21T00:21:29.809Z,786.44
2017-08-21T00:21:34.041Z,786.46
2017-08-21T00:21:38.138Z,786.5
2017-08-21T00:21:42.367Z,786.47
2017-08-21T00:21:46.700Z,786.48
2017-08-21T00:21:51.046Z,786.48
2017-08-21T00:21:55.503Z,786.41
2017-08-21T00:21:59.836Z,786.51
2017-08-21T00:22:04.182Z,786.49
2017-08-21T00:22:08.650Z,786.46
2017-08-21T00:22:12.990Z,786.49
2017-08-21T00:22:17.466Z,786.49
2017-08-21T00:22:21.925Z,786.48
2017-08-21T00:22:26.265Z,786.49
2017-08-21T00:22:30.719Z,786.51
2017-08-21T00:22:34.973Z,786.49
2017-08-21T00:22:39.200Z,786.51
2017-08-21T00:22:43.537Z,786.49
2017-08-21T00:22:47.783Z,786.53
2017-08-21T00:22:51.991Z,786.52
2017-08-21T00:22:56.432Z,786.53
2017-08-21T00:23:00.772Z,786.47
2017-08-21T00:23:05.544Z,786.45
2017-08-21T00:23:10.006Z,786.51
2017-08-21T00:23:14.343Z,786.53
2017-08-21T00:23:18.807Z,786.53
2017-08-21T00:23:23.189Z,786.52
2017-08-21T00:23:27.526Z,786.52
2017-08-21T00:23:31.764Z,786.57
2017-08-21T00:23:35.760Z,786.57
2017-08-21T00:23:40.112Z,786.57
2017-08-21T00:23:44.339Z,786.55
2017-08-21T00:23:48.809Z,786.57
2017-08-21T00:23:53.254Z,786.58
2017-08-21T00:23:57.710Z,786.58
2017-08-21T00:24:02.471Z,786.63
2017-08-21T00:24:06.935Z,786.62
2017-08-21T00:24:11.274Z,786.61
2017-08-21T00:24:15.732Z,786.6
2017-08-21T00:24:20.185Z,786.63
2017-08-21T00:24:24.658Z,786.62
2017-08-21T00:24:29.010Z,786.63
2017-08-21T00:24:33.466Z,786.63
2017-08-21T00:24:37.681Z,786.62
2017-08-21T00:24:42.028Z,786.62
2017-08-21T00:24:46.376Z,786.6
2017-08-21T00:24:50.708Z,786.59
2017-08-21T00:24:55.163Z,786.67
2017-08-21T00:24:59.610Z,786.63
2017-08-21T00:25:04.077Z,786.68
2017-08-21T00:25:08.596Z,786.68
2017-08-21T00:25:13.056Z,786.69
2017-08-21T00:25:17.518Z,786.65
2017-08-21T00:25:21.972Z,786.65
2017-08-21T00:25:26.304Z,786.65
2017-08-21T00:25:30.752Z,786.71
2017-08-21T00:25:34.975Z,786.68
2017-08-21T00:25:39.196Z,786.67
2017-08-21T00:25:43.541Z,786.7
2017-08-21T00:25:47.765Z,786.65
2017-08-21T00:25:52.126Z,786.67
2017-08-21T00:25:56.581Z,786.69
2017-08-21T00:26:01.043Z,786.74
2017-08-21T00:26:05.816Z,786.74
2017-08-21T00:26:10.279Z,786.75
2017-08-21T00:26:14.620Z,786.74
2017-08-21T00:26:19.080Z,786.76
2017-08-21T00:26:23.552Z,786.77
2017-08-21T00:26:28.009Z,786.77
2017-08-21T00:26:32.115Z,786.79
2017-08-21T00:26:36.345Z,786.77
2017-08-21T00:26:40.724Z,786.79
2017-08-21T00:26:45.063Z,786.79
2017-08-21T00:26:49.281Z,786.79
2017-08-21T00:26:53.738Z,786.81
2017-08-21T00:26:58.211Z,786.8
2017-08-21T00:27:02.682Z,786.84
2017-08-21T00:27:06.906Z,786.85
2017-08-21T00:27:11.376Z,786.81
2017-08-21T00:27:15.851Z,786.79
2017-08-21T00:27:20.197Z,786.8
2017-08-21T00:27:24.524Z,786.81
2017-08-21T00:27:28.903Z,786.82
2017-08-21T00:27:33.155Z,786.84
2017-08-21T00:27:37.254Z,786.85
2017-08-21T00:27:41.350Z,786.83
2017-08-21T00:27:45.820Z,786.9
2017-08-21T00:27:50.064Z,786.88
2017-08-21T00:27:54.045Z,786.85
2017-08-21T00:27:58.391Z,786.88
2017-08-21T00:28:02.880Z,786.88
2017-08-21T00:28:07.224Z,786.82
2017-08-21T00:28:11.697Z,786.9
2017-08-21T00:28:16.032Z,786.89
2017-08-21T00:28:20.390Z,786.87
2017-08-21T00:28:24.855Z,786.9
2017-08-21T00:28:29.323Z,786.91
2017-08-21T00:28:33.669Z,786.88
2017-08-21T00:28:37.784Z,786.92
2017-08-21T00:28:42.250Z,786.89
2017-08-21T00:28:46.591Z,786.91
2017-08-21T00:28:51.039Z,786.89
2017-08-21T00:28:55.400Z,786.84
2017-08-21T00:28:59.734Z,786.9
2017-08-21T00:29:04.201Z,786.92
2017-08-21T00:29:08.665Z,786.91
2017-08-21T00:29:13.140Z,786.92
2017-08-21T00:29:17.584Z,786.92
2017-08-21T00:29:21.929Z,786.93
2017-08-21T00:29:26.409Z,786.89
2017-08-21T00:29:30.872Z,786.89
2017-08-21T00:29:35.088Z,786.9
2017-08-21T00:29:39.439Z,786.89
2017-08-21T00:29:43.551Z,786.91
2017-08-21T00:29:47.775Z,786.89
2017-08-21T00:29:52.004Z,786.91
2017-08-21T00:29:56.238Z,786.92
2017-08-21T00:30:00.702Z,786.91
2017-08-21T00:30:05.292Z,786.91
2017-08-21T00:30:09.517Z,786.88
2017-08-21T00:30:13.871Z,786.87
2017-08-21T00:30:18.085Z,786.92
2017-08-21T00:30:22.330Z,786.9
2017-08-21T00:30:26.791Z,786.88
2017-08-21T00:30:31.255Z,786.89
2017-08-21T00:30:35.484Z,786.87
2017-08-21T00:30:39.952Z,786.86
2017-08-21T00:30:44.289Z,786.88
2017-08-21T00:30:48.632Z,786.9
2017-08-21T00:30:52.859Z,786.9
2017-08-21T00:30:57.313Z,786.84
2017-08-21T00:31:01.775Z,786.9
2017-08-21T00:31:06.253Z,786.87
2017-08-21T00:31:10.714Z,786.88
2017-08-21T00:31:15.192Z,786.92
2017-08-21T00:31:19.652Z,786.9
2017-08-21T00:31:23.989Z,786.93
2017-08-21T00:31:28.459Z,786.89
2017-08-21T00:31:32.819Z,786.92
2017-08-21T00:31:37.046Z,786.9
2017-08-21T00:31:41.382Z,786.92
2017-08-21T00:31:45.619Z,786.85
2017-08-21T00:31:49.956Z,786.82
2017-08-21T00:31:54.308Z,786.91
2017-08-21T00:31:58.536Z,786.9
2017-08-21T00:32:03.353Z,786.87
2017-08-21T00:32:07.701Z,786.88
2017-08-21T00:32:12.055Z,786.9
2017-08-21T00:32:16.538Z,786.89
2017-08-21T00:32:21.017Z,786.87
2017-08-21T00:32:25.360Z,786.84
2017-08-21T00:32:29.827Z,786.84
2017-08-21T00:32:34.157Z,786.86
2017-08-21T00:32:38.255Z,786.8
2017-08-21T00:32:42.709Z,786.83
2017-08-21T00:32:46.959Z,786.83
2017-08-21T00:32:51.201Z,786.82
2017-08-21T00:32:55.541Z,786.82
2017-08-21T00:32:59.884Z,786.83
2017-08-21T00:33:04.337Z,786.79
2017-08-21T00:33:08.674Z,786.8
2017-08-21T00:33:13.026Z,786.73
2017-08-21T00:33:17.364Z,786.72
2017-08-21T00:33:21.844Z,786.78
2017-08-21T00:33:26.313Z,786.82
2017-08-21T00:33:30.764Z,786.73
2017-08-21T00:33:35.120Z,786.76
2017-08-21T00:33:39.224Z,786.74
2017-08-21T00:33:43.574Z,786.72
2017-08-21T00:33:47.780Z,786.75
2017-08-21T00:33:52.130Z,786.71
2017-08-21T00:33:56.601Z,786.74
2017-08-21T00:34:01.055Z,786.71
2017-08-21T00:34:05.418Z,786.7
2017-08-21T00:34:09.783Z,786.68
2017-08-21T00:34:14.132Z,786.62
2017-08-21T00:34:18.580Z,786.65
2017-08-21T00:34:23.045Z,786.65
2017-08-21T00:34:27.519Z,786.63
2017-08-21T00:34:32.000Z,786.65
2017-08-21T00:34:36.328Z,786.63
2017-08-21T00:34:40.798Z,786.62
2017-08-21T00:34:45.165Z,786.6
2017-08-21T00:34:49.630Z,786.63
2017-08-21T00:34:53.848Z,786.6
2017-08-21T00:34:58.197Z,786.57
2017-08-21T00:35:02.679Z,786.57
2017-08-21T00:35:07.011Z,786.54
2017-08-21T00:35:11.483Z,786.54
2017-08-21T00:35:15.955Z,786.53
2017-08-21T00:35:20.294Z,786.52
2017-08-21T00:35:24.779Z,786.51
2017-08-21T00:35:29.245Z,786.53
2017-08-21T00:35:33.587Z,786.49
2017-08-21T00:35:37.816Z,786.49
2017-08-21T00:35:41.916Z,786.47
2017-08-21T00:35:46.391Z,786.43
2017-08-21T00:35:50.734Z,786.43
2017-08-21T00:35:55.082Z,786.4
2017-08-21T00:35:59.554Z,786.43
2017-08-21T00:36:03.911Z,786.43
2017-08-21T00:36:08.383Z,786.43
2017-08-21T00:36:12.890Z,786.4
2017-08-21T00:36:17.242Z,786.41
2017-08-21T00:36:21.583Z,786.41
2017-08-21T00:36:26.044Z,786.37
2017-08-21T00:36:30.521Z,786.33
2017-08-21T00:36:34.979Z,786.35
2017-08-21T00:36:39.197Z,786.34
2017-08-21T00:36:43.560Z,786.31
2017-08-21T00:36:47.792Z,786.31
2017-08-21T00:36:52.270Z,786.3
2017-08-21T00:36:56.728Z,786.29
2017-08-21T00:37:00.842Z,786.26
2017-08-21T00:37:05.064Z,786.27
2017-08-21T00:37:09.511Z,786.27
2017-08-21T00:37:13.848Z,786.27
2017-08-21T00:37:18.315Z,786.21
2017-08-21T00:37:22.691Z,786.24
2017-08-21T00:37:27.165Z,786.22
2017-08-21T00:37:31.515Z,786.21
2017-08-21T00:37:35.861Z,786.21
2017-08-21T00:37:40.206Z,786.12
2017-08-21T00:37:44.307Z,786.17
2017-08-21T00:37:48.767Z,786.14
2017-08-21T00:37:52.997Z,786.15
2017-08-21T00:37:57.110Z,786.1
2017-08-21T00:38:01.321Z,786.04
2017-08-21T00:38:06.015Z,786.09
2017-08-21T00:38:10.378Z,786.07
2017-08-21T00:38:14.722Z,786.05
2017-08-21T00:38:19.195Z,786.06
2017-08-21T00:38:23.662Z,786.07
2017-08-21T00:38:28.138Z,786.01
2017-08-21T00:38:32.593Z,786.02
2017-08-21T00:38:36.792Z,785.98
2017-08-21T00:38:41.160Z,786
2017-08-21T00:38:45.495Z,785.96
2017-08-21T00:38:49.861Z,785.96
2017-08-21T00:38:54.096Z,785.95
2017-08-21T00:38:58.353Z,785.97
2017-08-21T00:39:03.173Z,785.95
2017-08-21T00:39:07.643Z,785.93
2017-08-21T00:39:12.112Z,785.94
2017-08-21T00:39:16.583Z,785.93
2017-08-21T00:39:20.928Z,785.88
2017-08-21T00:39:25.385Z,785.89
2017-08-21T00:39:29.855Z,785.87
2017-08-21T00:39:34.317Z,785.85
2017-08-21T00:39:38.425Z,785.87
2017-08-21T00:39:42.766Z,785.85
2017-08-21T00:39:46.880Z,785.84
2017-08-21T00:39:51.211Z,785.81
2017-08-21T00:39:55.675Z,785.82
2017-08-21T00:39:59.899Z,785.83
2017-08-21T00:40:04.370Z,785.8
2017-08-21T00:40:08.842Z,785.8
2017-08-21T00:40:13.174Z,785.73
2017-08-21T00:40:17.390Z,785.74
2017-08-21T00:40:21.859Z,785.76
2017-08-21T00:40:26.333Z,785.77
2017-08-21T00:40:30.783Z,785.74
2017-08-21T00:40:35.115Z,785.73
2017-08-21T00:40:39.095Z,785.67
2017-08-21T00:40:43.468Z,785.71
2017-08-21T00:40:47.823Z,785.66
2017-08-21T00:40:52.295Z,785.65
2017-08-21T00:40:56.782Z,785.61
2017-08-21T00:41:01.123Z,785.64
2017-08-21T00:41:05.608Z,785.62
2017-08-21T00:41:10.074Z,785.63
2017-08-21T00:41:14.529Z,785.61
2017-08-21T00:41:18.872Z,785.61
2017-08-21T00:41:23.330Z,785.6
2017-08-21T00:41:27.656Z,785.58
2017-08-21T00:41:32.122Z,785.58
2017-08-21T00:41:36.362Z,785.56
2017-08-21T00:41:40.599Z,785.55
2017-08-21T00:41:44.808Z,785.55
2017-08-21T00:41:49.051Z,785.55
2017-08-21T00:41:53.397Z,785.55
2017-08-21T00:41:57.755Z,785.48
2017-08-21T00:42:02.106Z,785.54
2017-08-21T00:42:06.575Z,785.47
2017-08-21T00:42:10.806Z,785.49
2017-08-21T00:42:15.278Z,785.48
2017-08-21T00:42:19.749Z,785.43
2017-08-21T00:42:24.215Z,785.48
2017-08-21T00:42:28.692Z,785.45
2017-08-21T00:42:33.044Z,785.45
2017-08-21T00:42:37.272Z,785.4
2017-08-21T00:42:41.370Z,785.43
2017-08-21T00:42:45.594Z,785.44
2017-08-21T00:42:50.064Z,785.43
2017-08-21T00:42:54.520Z,785.42
2017-08-21T00:42:58.885Z,785.41
2017-08-21T00:43:03.339Z,785.38
2017-08-21T00:43:07.572Z,785.39
2017-08-21T00:43:12.042Z,785.37
2017-08-21T00:43:16.506Z,785.36
2017-08-21T00:43:20.979Z,785.36
2017-08-21T00:43:25.448Z,785.34
2017-08-21T00:43:29.930Z,785.29
2017-08-21T00:43:34.403Z,785.27
2017-08-21T00:43:38.638Z,785.35
2017-08-21T00:43:43.114Z,785.31
2017-08-21T00:43:47.450Z,785.34
2017-08-21T00:43:51.790Z,785.29
2017-08-21T00:43:56.012Z,785.31
2017-08-21T00:44:00.357Z,785.28
2017-08-21T00:44:04.698Z,785.3
2017-08-21T00:44:09.039Z,785.23
2017-08-21T00:44:13.375Z,785.28
2017-08-21T00:44:17.833Z,785.28
2017-08-21T00:44:22.325Z,785.24
2017-08-21T00:44:26.675Z,785.24
2017-08-21T00:44:31.133Z,785.25
2017-08-21T00:44:35.595Z,785.17
2017-08-21T00:44:39.924Z,785.24
2017-08-21T00:44:44.281Z,785.22
2017-08-21T00:44:48.744Z,785.16
2017-08-21T00:44:53.110Z,785.2
2017-08-21T00:44:57.457Z,785.17
2017-08-21T00:45:01.676Z,785.18
2017-08-21T00:45:06.096Z,785.15
2017-08-21T00:45:10.467Z,785.17
2017-08-21T00:45:14.824Z,785.11
2017-08-21T00:45:19.287Z,785.12
2017-08-21T00:45:23.761Z,785.14
2017-08-21T00:45:28.230Z,785.13
2017-08-21T00:45:32.570Z,785.12
2017-08-21T00:45:36.672Z,785.1
2017-08-21T00:45:41.035Z,785.09
2017-08-21T00:45:45.520Z,785.04
2017-08-21T00:45:49.868Z,785.09
2017-08-21T00:45:54.329Z,785.08
2017-08-21T00:45:58.556Z,785.04
2017-08-21T00:46:02.998Z,785.04
2017-08-21T00:46:07.108Z,785.04
2017-08-21T00:46:11.342Z,785.06
2017-08-21T00:46:15.680Z,785.04
2017-08-21T00:46:19.893Z,784.99
2017-08-21T00:46:24.346Z,785
2017-08-21T00:46:28.811Z,785
2017-08-21T00:46:33.155Z,785.01
2017-08-21T00:46:37.515Z,785
2017-08-21T00:46:41.852Z,784.97
2017-08-21T00:46:46.067Z,784.97
2017-08-21T00:46:50.286Z,785
2017-08-21T00:46:54.749Z,784.97
2017-08-21T00:46:59.194Z,784.94
2017-08-21T00:47:03.738Z,784.92
2017-08-21T00:47:08.083Z,784.92
2017-08-21T00:47:12.427Z,784.92
2017-08-21T00:47:16.902Z,784.87
2017-08-21T00:47:21.258Z,784.91
2017-08-21T00:47:25.606Z,784.92
2017-08-21T00:47:30.068Z,784.9
2017-08-21T00:47:34.436Z,784.88
2017-08-21T00:47:38.661Z,784.83
2017-08-21T00:47:43.123Z,784.87
2017-08-21T00:47:47.245Z,784.85
2017-08-21T00:47:51.593Z,784.85
2017-08-21T00:47:56.069Z,784.85
2017-08-21T00:48:00.522Z,784.85
2017-08-21T00:48:04.865Z,784.84
2017-08-21T00:48:09.311Z,784.84
2017-08-21T00:48:13.776Z,784.82
2017-08-21T00:48:18.407Z,784.82
2017-08-21T00:48:22.855Z,784.81
2017-08-21T00:48:27.318Z,784.8
2017-08-21T00:48:31.786Z,784.79
2017-08-21T00:48:35.886Z,784.78
2017-08-21T00:48:40.120Z,784.78
2017-08-21T00:48:44.231Z,784.79
2017-08-21T00:48:48.578Z,784.75
2017-08-21T00:48:53.033Z,784.73
2017-08-21T00:48:57.503Z,784.77
2017-08-21T00:49:01.645Z,784.74
2017-08-21T00:49:05.880Z,784.74
2017-08-21T00:49:10.235Z,784.74
2017-08-21T00:49:14.585Z,784.69
2017-08-21T00:49:19.082Z,784.72
2017-08-21T00:49:23.540Z,784.7
2017-08-21T00:49:27.886Z,784.7
2017-08-21T00:49:32.232Z,784.68
2017-08-21T00:49:36.481Z,784.69
2017-08-21T00:49:40.939Z,784.69
2017-08-21T00:49:45.157Z,784.69
2017-08-21T00:49:49.515Z,784.67
2017-08-21T00:49:53.865Z,784.67
2017-08-21T00:49:58.322Z,784.67
2017-08-21T00:50:02.765Z,784.65
2017-08-21T00:50:06.995Z,784.65
2017-08-21T00:50:11.254Z,784.63
2017-08-21T00:50:15.722Z,784.58
2017-08-21T00:50:20.177Z,784.62
2017-08-21T00:50:24.528Z,784.62
2017-08-21T00:50:28.999Z,784.61
2017-08-21T00:50:33.466Z,784.61
2017-08-21T00:50:37.808Z,784.57
2017-08-21T00:50:42.145Z,784.61
2017-08-21T00:50:46.371Z,784.58
2017-08-21T00:50:50.826Z,784.61
2017-08-21T00:50:55.294Z,784.55
2017-08-21T00:50:59.668Z,784.57
2017-08-21T00:51:04.013Z,784.55
2017-08-21T00:51:08.484Z,784.57
2017-08-21T00:51:12.840Z,784.58
2017-08-21T00:51:17.179Z,784.55
2017-08-21T00:51:21.523Z,784.53
2017-08-21T00:51:25.978Z,784.54
2017-08-21T00:51:30.483Z,784.55
2017-08-21T00:51:34.938Z,784.57
2017-08-21T00:51:39.056Z,784.55
2017-08-21T00:51:43.285Z,784.53
2017-08-21T00:51:47.532Z,784.47
2017-08-21T00:51:51.995Z,784.52
2017-08-21T00:51:56.443Z,784.51
2017-08-21T00:52:00.782Z,784.47
2017-08-21T00:52:05.123Z,784.49
2017-08-21T00:52:09.454Z,784.5
2017-08-21T00:52:13.806Z,784.49
2017-08-21T00:52:18.024Z,784.49
2017-08-21T00:52:22.483Z,784.47
2017-08-21T00:52:26.943Z,784.49
2017-08-21T00:52:31.270Z,784.47
2017-08-21T00:52:35.623Z,784.46
2017-08-21T00:52:40.097Z,784.47
2017-08-21T00:52:44.560Z,784.44
2017-08-21T00:52:49.020Z,784.46
2017-08-21T00:52:53.373Z,784.46
2017-08-21T00:52:57.601Z,784.42
2017-08-21T00:53:02.173Z,784.44
2017-08-21T00:53:06.634Z,784.43
2017-08-21T00:53:10.988Z,784.42
2017-08-21T00:53:15.325Z,784.45
2017-08-21T00:53:19.546Z,784.44
2017-08-21T00:53:24.025Z,784.36
2017-08-21T00:53:28.492Z,784.39
2017-08-21T00:53:32.939Z,784.35
2017-08-21T00:53:37.164Z,784.35
2017-08-21T00:53:41.376Z,784.41
2017-08-21T00:53:45.847Z,784.39
2017-08-21T00:53:50.305Z,784.33
2017-08-21T00:53:54.644Z,784.35
2017-08-21T00:53:59.110Z,784.39
2017-08-21T00:54:03.670Z,784.34
2017-08-21T00:54:08.034Z,784.34
2017-08-21T00:54:12.255Z,784.28
2017-08-21T00:54:16.602Z,784.36
2017-08-21T00:54:20.935Z,784.33
2017-08-21T00:54:25.411Z,784.36
2017-08-21T00:54:29.874Z,784.33
2017-08-21T00:54:34.330Z,784.32
2017-08-21T00:54:38.672Z,784.34
2017-08-21T00:54:43.031Z,784.32